sensor_id;sensor_type;location;lat;lon;timestamp;temperature;humidity
4435;DHT22;46552;52.150;8.428;2024-02-21T00:00:22;9.10;99.90
4435;DHT22;46552;52.150;8.428;2024-02-21T00:02:50;9.10;99.90
4435;DHT22;46552;52.150;8.428;2024-02-21T00:05:18;9.10;99.90
4435;DHT22;46552;52.150;8.428;2024-02-21T00:07:45;9.10;99.90
4435;DHT22;46552;52.150;8.428;2024-02-21T00:10:12;9.10;99.90
4435;DHT22;46552;52.150;8.428;2024-02-21T00:12:41;9.10;99.90
4435;DHT22;46552;52.150;8.428;2024-02-21T00:15:09;9.10;99.90
4435;DHT22;46552;52.150;8.428;2024-02-21T00:17:37;9.10;99.90
4435;DHT22;46552;52.150;8.428;2024-02-21T00:20:06;9.10;99.90
4435;DHT22;46552;52.150;8.428;2024-02-21T00:22:34;9.10;99.90
4435;DHT22;46552;52.150;8.428;2024-02-21T00:25:04;9.10;99.90
4435;DHT22;46552;52.150;8.428;2024-02-21T00:27:31;9.10;99.90
4435;DHT22;46552;52.150;8.428;2024-02-21T00:29:58;9.10;99.90
4435;DHT22;46552;52.150;8.428;2024-02-21T00:32:27;9.10;99.90
4435;DHT22;46552;52.150;8.428;2024-02-21T00:34:54;9.00;99.90
4435;DHT22;46552;52.150;8.428;2024-02-21T00:37:21;9.00;99.90
4435;DHT22;46552;52.150;8.428;2024-02-21T00:39:50;9.10;99.90
4435;DHT22;46552;52.150;8.428;2024-02-21T00:42:18;9.10;99.90
4435;DHT22;46552;52.150;8.428;2024-02-21T00:44:45;9.10;99.90
4435;DHT22;46552;52.150;8.428;2024-02-21T00:47:13;9.10;99.90
4435;DHT22;46552;52.150;8.428;2024-02-21T00:49:41;9.10;99.90
4435;DHT22;46552;52.150;8.428;2024-02-21T00:52:08;9.10;99.90
4435;DHT22;46552;52.150;8.428;2024-02-21T00:54:35;9.20;99.90
4435;DHT22;46552;52.150;8.428;2024-02-21T00:57:03;9.10;99.90
4435;DHT22;46552;52.150;8.428;2024-02-21T00:59:32;9.20;99.90
4435;DHT22;46552;52.150;8.428;2024-02-21T01:01:59;9.10;99.90
4435;DHT22;46552;52.150;8.428;2024-02-21T01:04:26;9.10;99.90
4435;DHT22;46552;52.150;8.428;2024-02-21T01:06:54;9.10;99.90
4435;DHT22;46552;52.150;8.428;2024-02-21T01:09:22;9.10;99.90
4435;DHT22;46552;52.150;8.428;2024-02-21T01:11:49;9.10;99.90
4435;DHT22;46552;52.150;8.428;2024-02-21T01:14:18;9.20;99.90
4435;DHT22;46552;52.150;8.428;2024-02-21T01:16:46;9.20;99.90
4435;DHT22;46552;52.150;8.428;2024-02-21T01:19:13;9.20;99.90
4435;DHT22;46552;52.150;8.428;2024-02-21T01:21:40;9.20;99.90
4435;DHT22;46552;52.150;8.428;2024-02-21T01:24:10;9.20;99.90
4435;DHT22;46552;52.150;8.428;2024-02-21T01:26:37;9.10;99.90
4435;DHT22;46552;52.150;8.428;2024-02-21T01:29:04;9.10;99.90
4435;DHT22;46552;52.150;8.428;2024-02-21T01:31:32;9.10;99.90
4435;DHT22;46552;52.150;8.428;2024-02-21T01:33:59;9.10;99.90
4435;DHT22;46552;52.150;8.428;2024-02-21T01:36:27;9.10;99.90
4435;DHT22;46552;52.150;8.428;2024-02-21T01:38:55;9.10;99.90
4435;DHT22;46552;52.150;8.428;2024-02-21T01:41:24;9.10;99.90
4435;DHT22;46552;52.150;8.428;2024-02-21T01:43:51;9.10;99.90
4435;DHT22;46552;52.150;8.428;2024-02-21T01:46:19;9.10;99.90
4435;DHT22;46552;52.150;8.428;2024-02-21T01:48:46;9.10;99.90
4435;DHT22;46552;52.150;8.428;2024-02-21T01:51:13;9.10;99.90
4435;DHT22;46552;52.150;8.428;2024-02-21T01:53:43;9.10;99.90
4435;DHT22;46552;52.150;8.428;2024-02-21T01:56:13;9.20;99.90
4435;DHT22;46552;52.150;8.428;2024-02-21T01:58:42;9.20;99.90
4435;DHT22;46552;52.150;8.428;2024-02-21T02:01:11;9.20;99.90
4435;DHT22;46552;52.150;8.428;2024-02-21T02:03:38;9.20;99.90
4435;DHT22;46552;52.150;8.428;2024-02-21T02:06:05;9.20;99.90
4435;DHT22;46552;52.150;8.428;2024-02-21T02:08:34;9.20;99.90
4435;DHT22;46552;52.150;8.428;2024-02-21T02:11:01;9.20;99.90
4435;DHT22;46552;52.150;8.428;2024-02-21T02:13:28;9.20;99.90
4435;DHT22;46552;52.150;8.428;2024-02-21T02:15:57;9.20;99.90
4435;DHT22;46552;52.150;8.428;2024-02-21T02:18:24;9.20;99.90
4435;DHT22;46552;52.150;8.428;2024-02-21T02:20:52;9.20;99.90
4435;DHT22;46552;52.150;8.428;2024-02-21T02:23:24;9.20;99.90
4435;DHT22;46552;52.150;8.428;2024-02-21T02:25:51;9.20;99.90
4435;DHT22;46552;52.150;8.428;2024-02-21T02:28:19;9.20;99.90
4435;DHT22;46552;52.150;8.428;2024-02-21T02:30:46;9.20;99.90
4435;DHT22;46552;52.150;8.428;2024-02-21T02:33:13;9.20;99.90
4435;DHT22;46552;52.150;8.428;2024-02-21T02:35:43;9.20;99.90
4435;DHT22;46552;52.150;8.428;2024-02-21T02:38:10;9.20;99.90
4435;DHT22;46552;52.150;8.428;2024-02-21T02:40:40;9.20;99.90
4435;DHT22;46552;52.150;8.428;2024-02-21T02:43:08;9.20;99.90
4435;DHT22;46552;52.150;8.428;2024-02-21T02:45:36;9.20;99.90
4435;DHT22;46552;52.150;8.428;2024-02-21T02:48:04;9.20;99.90
4435;DHT22;46552;52.150;8.428;2024-02-21T02:50:31;9.20;99.90
4435;DHT22;46552;52.150;8.428;2024-02-21T02:52:59;9.20;99.90
4435;DHT22;46552;52.150;8.428;2024-02-21T02:55:26;9.20;99.90
4435;DHT22;46552;52.150;8.428;2024-02-21T02:57:56;9.20;99.90
4435;DHT22;46552;52.150;8.428;2024-02-21T03:00:24;9.20;99.90
4435;DHT22;46552;52.150;8.428;2024-02-21T03:02:51;9.20;99.90
4435;DHT22;46552;52.150;8.428;2024-02-21T03:05:19;9.20;99.90
4435;DHT22;46552;52.150;8.428;2024-02-21T03:07:47;9.20;99.90
4435;DHT22;46552;52.150;8.428;2024-02-21T03:10:15;9.10;99.90
4435;DHT22;46552;52.150;8.428;2024-02-21T03:12:42;9.10;99.90
4435;DHT22;46552;52.150;8.428;2024-02-21T03:15:12;9.10;99.90
4435;DHT22;46552;52.150;8.428;2024-02-21T03:17:40;9.10;99.90
4435;DHT22;46552;52.150;8.428;2024-02-21T03:20:07;9.10;99.90
4435;DHT22;46552;52.150;8.428;2024-02-21T03:22:35;9.10;99.90
4435;DHT22;46552;52.150;8.428;2024-02-21T03:25:03;9.10;99.90
4435;DHT22;46552;52.150;8.428;2024-02-21T03:27:31;9.10;99.90
4435;DHT22;46552;52.150;8.428;2024-02-21T03:29:58;9.00;99.90
4435;DHT22;46552;52.150;8.428;2024-02-21T03:32:26;9.00;99.90
4435;DHT22;46552;52.150;8.428;2024-02-21T03:34:54;9.00;99.90
4435;DHT22;46552;52.150;8.428;2024-02-21T03:37:21;9.10;99.90
4435;DHT22;46552;52.150;8.428;2024-02-21T03:39:48;9.10;99.90
4435;DHT22;46552;52.150;8.428;2024-02-21T03:42:17;9.10;99.90
4435;DHT22;46552;52.150;8.428;2024-02-21T03:44:44;9.10;99.90
4435;DHT22;46552;52.150;8.428;2024-02-21T03:47:12;9.10;99.90
4435;DHT22;46552;52.150;8.428;2024-02-21T03:49:40;9.10;99.90
4435;DHT22;46552;52.150;8.428;2024-02-21T03:52:08;9.10;99.90
4435;DHT22;46552;52.150;8.428;2024-02-21T03:54:36;9.10;99.90
4435;DHT22;46552;52.150;8.428;2024-02-21T03:57:04;9.10;99.90
4435;DHT22;46552;52.150;8.428;2024-02-21T03:59:32;9.10;99.90
4435;DHT22;46552;52.150;8.428;2024-02-21T04:01:59;9.10;99.90
4435;DHT22;46552;52.150;8.428;2024-02-21T04:04:26;9.10;99.90
4435;DHT22;46552;52.150;8.428;2024-02-21T04:06:54;9.10;99.90
4435;DHT22;46552;52.150;8.428;2024-02-21T04:09:22;9.10;99.90
4435;DHT22;46552;52.150;8.428;2024-02-21T04:11:51;9.10;99.90
4435;DHT22;46552;52.150;8.428;2024-02-21T04:14:19;9.10;99.90
4435;DHT22;46552;52.150;8.428;2024-02-21T04:16:47;9.10;99.90
4435;DHT22;46552;52.150;8.428;2024-02-21T04:19:14;9.10;99.90
4435;DHT22;46552;52.150;8.428;2024-02-21T04:21:41;9.10;99.90
4435;DHT22;46552;52.150;8.428;2024-02-21T04:24:09;9.10;99.90
4435;DHT22;46552;52.150;8.428;2024-02-21T04:26:37;9.10;99.90
4435;DHT22;46552;52.150;8.428;2024-02-21T04:29:05;9.10;99.90
4435;DHT22;46552;52.150;8.428;2024-02-21T04:31:32;9.10;99.90
4435;DHT22;46552;52.150;8.428;2024-02-21T04:34:00;9.10;99.90
4435;DHT22;46552;52.150;8.428;2024-02-21T04:36:28;9.20;99.90
4435;DHT22;46552;52.150;8.428;2024-02-21T04:38:55;9.10;99.90
4435;DHT22;46552;52.150;8.428;2024-02-21T04:41:24;9.10;99.90
4435;DHT22;46552;52.150;8.428;2024-02-21T04:43:51;9.10;99.90
4435;DHT22;46552;52.150;8.428;2024-02-21T04:46:18;9.10;99.90
4435;DHT22;46552;52.150;8.428;2024-02-21T04:48:46;9.10;99.90
4435;DHT22;46552;52.150;8.428;2024-02-21T04:51:13;9.10;99.90
4435;DHT22;46552;52.150;8.428;2024-02-21T04:53:40;9.00;99.90
4435;DHT22;46552;52.150;8.428;2024-02-21T04:56:07;9.00;99.90
4435;DHT22;46552;52.150;8.428;2024-02-21T04:58:39;9.00;99.90
4435;DHT22;46552;52.150;8.428;2024-02-21T05:01:06;9.00;99.90
4435;DHT22;46552;52.150;8.428;2024-02-21T05:03:34;8.90;99.90
4435;DHT22;46552;52.150;8.428;2024-02-21T05:06:01;8.90;99.90
4435;DHT22;46552;52.150;8.428;2024-02-21T05:08:29;8.90;99.90
4435;DHT22;46552;52.150;8.428;2024-02-21T05:10:57;8.90;99.90
4435;DHT22;46552;52.150;8.428;2024-02-21T05:13:24;8.80;99.90
4435;DHT22;46552;52.150;8.428;2024-02-21T05:15:54;8.90;99.90
4435;DHT22;46552;52.150;8.428;2024-02-21T05:18:21;8.80;99.90
4435;DHT22;46552;52.150;8.428;2024-02-21T05:20:48;8.80;99.90
4435;DHT22;46552;52.150;8.428;2024-02-21T05:23:15;8.80;99.90
4435;DHT22;46552;52.150;8.428;2024-02-21T05:25:42;8.70;99.90
4435;DHT22;46552;52.150;8.428;2024-02-21T05:28:10;8.70;99.90
4435;DHT22;46552;52.150;8.428;2024-02-21T05:30:37;8.70;99.90
4435;DHT22;46552;52.150;8.428;2024-02-21T05:33:08;8.70;99.90
4435;DHT22;46552;52.150;8.428;2024-02-21T05:35:37;8.70;99.90
4435;DHT22;46552;52.150;8.428;2024-02-21T05:38:06;8.80;99.90
4435;DHT22;46552;52.150;8.428;2024-02-21T05:40:37;8.80;99.90
4435;DHT22;46552;52.150;8.428;2024-02-21T05:43:06;8.70;99.90
4435;DHT22;46552;52.150;8.428;2024-02-21T05:45:34;8.70;99.90
4435;DHT22;46552;52.150;8.428;2024-02-21T05:48:02;8.70;99.90
4435;DHT22;46552;52.150;8.428;2024-02-21T05:50:31;8.70;99.90
4435;DHT22;46552;52.150;8.428;2024-02-21T05:52:58;8.70;99.90
4435;DHT22;46552;52.150;8.428;2024-02-21T05:55:25;8.70;99.90
4435;DHT22;46552;52.150;8.428;2024-02-21T05:57:54;8.70;99.90
4435;DHT22;46552;52.150;8.428;2024-02-21T06:00:21;8.60;99.90
4435;DHT22;46552;52.150;8.428;2024-02-21T06:02:48;8.60;99.90
4435;DHT22;46552;52.150;8.428;2024-02-21T06:05:16;8.60;99.90
4435;DHT22;46552;52.150;8.428;2024-02-21T06:07:45;8.70;99.90
4435;DHT22;46552;52.150;8.428;2024-02-21T06:10:13;8.70;99.90
4435;DHT22;46552;52.150;8.428;2024-02-21T06:12:40;8.70;99.90
4435;DHT22;46552;52.150;8.428;2024-02-21T06:15:08;8.70;99.90
4435;DHT22;46552;52.150;8.428;2024-02-21T06:17:35;8.70;99.90
4435;DHT22;46552;52.150;8.428;2024-02-21T06:20:03;8.70;99.90
4435;DHT22;46552;52.150;8.428;2024-02-21T06:22:31;8.70;99.90
4435;DHT22;46552;52.150;8.428;2024-02-21T06:24:59;8.70;99.90
4435;DHT22;46552;52.150;8.428;2024-02-21T06:27:27;8.70;99.90
4435;DHT22;46552;52.150;8.428;2024-02-21T06:29:54;8.70;99.90
4435;DHT22;46552;52.150;8.428;2024-02-21T06:32:21;8.70;99.90
4435;DHT22;46552;52.150;8.428;2024-02-21T06:34:48;8.70;99.90
4435;DHT22;46552;52.150;8.428;2024-02-21T06:37:17;8.80;99.90
4435;DHT22;46552;52.150;8.428;2024-02-21T06:39:44;8.80;99.90
4435;DHT22;46552;52.150;8.428;2024-02-21T06:42:13;8.80;99.90
4435;DHT22;46552;52.150;8.428;2024-02-21T06:44:40;8.80;99.90
4435;DHT22;46552;52.150;8.428;2024-02-21T06:47:07;8.80;99.90
4435;DHT22;46552;52.150;8.428;2024-02-21T06:49:34;8.80;99.90
4435;DHT22;46552;52.150;8.428;2024-02-21T06:52:03;8.90;99.90
4435;DHT22;46552;52.150;8.428;2024-02-21T06:54:31;8.90;99.90
4435;DHT22;46552;52.150;8.428;2024-02-21T06:56:58;8.90;99.90
4435;DHT22;46552;52.150;8.428;2024-02-21T06:59:27;8.90;99.90
4435;DHT22;46552;52.150;8.428;2024-02-21T07:01:55;8.90;99.90
4435;DHT22;46552;52.150;8.428;2024-02-21T07:04:22;8.90;99.90
4435;DHT22;46552;52.150;8.428;2024-02-21T07:06:50;8.90;99.90
4435;DHT22;46552;52.150;8.428;2024-02-21T07:09:17;8.90;99.90
4435;DHT22;46552;52.150;8.428;2024-02-21T07:11:44;8.90;99.90
4435;DHT22;46552;52.150;8.428;2024-02-21T07:14:13;9.00;99.90
4435;DHT22;46552;52.150;8.428;2024-02-21T07:16:42;9.00;99.90
4435;DHT22;46552;52.150;8.428;2024-02-21T07:19:10;9.00;99.90
4435;DHT22;46552;52.150;8.428;2024-02-21T07:21:37;9.00;99.90
4435;DHT22;46552;52.150;8.428;2024-02-21T07:24:07;9.00;99.90
4435;DHT22;46552;52.150;8.428;2024-02-21T07:26:34;9.10;99.90
4435;DHT22;46552;52.150;8.428;2024-02-21T07:29:01;9.10;99.90
4435;DHT22;46552;52.150;8.428;2024-02-21T07:31:29;9.10;99.90
4435;DHT22;46552;52.150;8.428;2024-02-21T07:33:58;9.10;99.90
4435;DHT22;46552;52.150;8.428;2024-02-21T07:36:28;9.10;99.90
4435;DHT22;46552;52.150;8.428;2024-02-21T07:38:56;9.10;99.90
4435;DHT22;46552;52.150;8.428;2024-02-21T07:41:23;9.10;99.90
4435;DHT22;46552;52.150;8.428;2024-02-21T07:43:50;9.10;99.90
4435;DHT22;46552;52.150;8.428;2024-02-21T07:46:19;9.10;99.90
4435;DHT22;46552;52.150;8.428;2024-02-21T07:48:47;9.10;99.90
4435;DHT22;46552;52.150;8.428;2024-02-21T07:51:15;9.20;99.90
4435;DHT22;46552;52.150;8.428;2024-02-21T07:53:43;9.20;99.90
4435;DHT22;46552;52.150;8.428;2024-02-21T07:56:11;9.20;99.90
4435;DHT22;46552;52.150;8.428;2024-02-21T07:58:39;9.20;99.90
4435;DHT22;46552;52.150;8.428;2024-02-21T08:01:07;9.20;99.90
4435;DHT22;46552;52.150;8.428;2024-02-21T08:03:35;9.30;99.90
4435;DHT22;46552;52.150;8.428;2024-02-21T08:06:03;9.30;99.90
4435;DHT22;46552;52.150;8.428;2024-02-21T08:08:32;9.30;99.90
4435;DHT22;46552;52.150;8.428;2024-02-21T08:11:00;9.30;99.90
4435;DHT22;46552;52.150;8.428;2024-02-21T08:13:27;9.30;99.90
4435;DHT22;46552;52.150;8.428;2024-02-21T08:15:54;9.30;99.90
4435;DHT22;46552;52.150;8.428;2024-02-21T08:18:22;9.40;99.90
4435;DHT22;46552;52.150;8.428;2024-02-21T08:20:50;9.40;99.90
4435;DHT22;46552;52.150;8.428;2024-02-21T08:23:18;9.40;99.90
4435;DHT22;46552;52.150;8.428;2024-02-21T08:25:47;9.40;99.90
4435;DHT22;46552;52.150;8.428;2024-02-21T08:28:14;9.40;99.90
4435;DHT22;46552;52.150;8.428;2024-02-21T08:30:42;9.40;99.90
4435;DHT22;46552;52.150;8.428;2024-02-21T08:33:14;9.40;99.90
4435;DHT22;46552;52.150;8.428;2024-02-21T08:35:43;9.40;99.90
4435;DHT22;46552;52.150;8.428;2024-02-21T08:38:10;9.50;99.90
4435;DHT22;46552;52.150;8.428;2024-02-21T08:40:38;9.60;99.90
4435;DHT22;46552;52.150;8.428;2024-02-21T08:43:07;9.60;99.90
4435;DHT22;46552;52.150;8.428;2024-02-21T08:45:34;9.70;99.90
4435;DHT22;46552;52.150;8.428;2024-02-21T08:48:04;9.70;99.90
4435;DHT22;46552;52.150;8.428;2024-02-21T08:50:32;9.70;99.90
4435;DHT22;46552;52.150;8.428;2024-02-21T08:52:59;9.70;99.90
4435;DHT22;46552;52.150;8.428;2024-02-21T08:55:27;9.70;99.90
4435;DHT22;46552;52.150;8.428;2024-02-21T08:57:54;9.80;99.90
4435;DHT22;46552;52.150;8.428;2024-02-21T09:00:22;9.90;99.90
4435;DHT22;46552;52.150;8.428;2024-02-21T09:02:52;10.00;99.90
4435;DHT22;46552;52.150;8.428;2024-02-21T09:05:21;10.00;99.90
4435;DHT22;46552;52.150;8.428;2024-02-21T09:07:49;10.10;99.90
4435;DHT22;46552;52.150;8.428;2024-02-21T09:10:17;10.10;99.90
4435;DHT22;46552;52.150;8.428;2024-02-21T09:12:44;10.20;99.90
4435;DHT22;46552;52.150;8.428;2024-02-21T09:15:13;10.40;99.90
4435;DHT22;46552;52.150;8.428;2024-02-21T09:17:42;10.60;99.90
4435;DHT22;46552;52.150;8.428;2024-02-21T09:20:10;10.70;99.90
4435;DHT22;46552;52.150;8.428;2024-02-21T09:22:39;10.90;99.90
4435;DHT22;46552;52.150;8.428;2024-02-21T09:25:07;10.90;99.90
4435;DHT22;46552;52.150;8.428;2024-02-21T09:27:38;11.00;99.90
4435;DHT22;46552;52.150;8.428;2024-02-21T09:30:06;10.90;99.90
4435;DHT22;46552;52.150;8.428;2024-02-21T09:32:33;10.80;99.90
4435;DHT22;46552;52.150;8.428;2024-02-21T09:35:03;10.90;99.90
4435;DHT22;46552;52.150;8.428;2024-02-21T09:37:31;10.90;99.90
4435;DHT22;46552;52.150;8.428;2024-02-21T09:39:59;11.00;99.90
4435;DHT22;46552;52.150;8.428;2024-02-21T09:42:30;11.20;99.90
4435;DHT22;46552;52.150;8.428;2024-02-21T09:45:00;11.30;99.90
4435;DHT22;46552;52.150;8.428;2024-02-21T09:47:34;11.50;99.90
4435;DHT22;46552;52.150;8.428;2024-02-21T09:50:07;11.80;99.90
4435;DHT22;46552;52.150;8.428;2024-02-21T09:52:35;12.00;99.90
4435;DHT22;46552;52.150;8.428;2024-02-21T09:55:04;12.10;99.90
4435;DHT22;46552;52.150;8.428;2024-02-21T09:57:34;12.40;99.90
4435;DHT22;46552;52.150;8.428;2024-02-21T10:00:01;12.70;99.90
4435;DHT22;46552;52.150;8.428;2024-02-21T10:02:33;12.90;99.90
4435;DHT22;46552;52.150;8.428;2024-02-21T10:05:00;12.90;99.90
4435;DHT22;46552;52.150;8.428;2024-02-21T10:07:31;12.80;99.90
4435;DHT22;46552;52.150;8.428;2024-02-21T10:10:01;12.70;99.90
4435;DHT22;46552;52.150;8.428;2024-02-21T10:12:28;12.60;99.90
4435;DHT22;46552;52.150;8.428;2024-02-21T10:15:00;12.50;99.90
4435;DHT22;46552;52.150;8.428;2024-02-21T10:17:28;12.30;99.90
4435;DHT22;46552;52.150;8.428;2024-02-21T10:19:55;12.20;99.90
4435;DHT22;46552;52.150;8.428;2024-02-21T10:22:22;12.10;99.90
4435;DHT22;46552;52.150;8.428;2024-02-21T10:24:52;11.90;99.90
4435;DHT22;46552;52.150;8.428;2024-02-21T10:27:23;11.80;99.90
4435;DHT22;46552;52.150;8.428;2024-02-21T10:29:51;11.80;99.90
4435;DHT22;46552;52.150;8.428;2024-02-21T10:32:18;11.70;99.90
4435;DHT22;46552;52.150;8.428;2024-02-21T10:34:46;11.60;99.90
4435;DHT22;46552;52.150;8.428;2024-02-21T10:37:17;11.60;99.90
4435;DHT22;46552;52.150;8.428;2024-02-21T10:39:44;11.50;99.90
4435;DHT22;46552;52.150;8.428;2024-02-21T10:42:13;11.50;99.90
4435;DHT22;46552;52.150;8.428;2024-02-21T10:44:41;11.50;99.90
4435;DHT22;46552;52.150;8.428;2024-02-21T10:47:11;11.50;99.90
4435;DHT22;46552;52.150;8.428;2024-02-21T10:49:40;11.50;99.90
4435;DHT22;46552;52.150;8.428;2024-02-21T10:52:14;11.60;99.90
4435;DHT22;46552;52.150;8.428;2024-02-21T10:54:50;11.60;99.90
4435;DHT22;46552;52.150;8.428;2024-02-21T10:57:22;11.60;99.90
4435;DHT22;46552;52.150;8.428;2024-02-21T10:59:53;11.50;99.90
4435;DHT22;46552;52.150;8.428;2024-02-21T11:02:23;11.40;99.90
4435;DHT22;46552;52.150;8.428;2024-02-21T11:04:52;11.30;99.90
4435;DHT22;46552;52.150;8.428;2024-02-21T11:07:20;11.30;99.90
4435;DHT22;46552;52.150;8.428;2024-02-21T11:09:51;11.20;99.90
4435;DHT22;46552;52.150;8.428;2024-02-21T11:12:23;11.30;99.90
4435;DHT22;46552;52.150;8.428;2024-02-21T11:14:50;11.20;99.90
4435;DHT22;46552;52.150;8.428;2024-02-21T11:17:20;11.30;99.90
4435;DHT22;46552;52.150;8.428;2024-02-21T11:19:50;11.40;99.90
4435;DHT22;46552;52.150;8.428;2024-02-21T11:22:18;11.30;99.90
4435;DHT22;46552;52.150;8.428;2024-02-21T11:24:46;11.30;99.90
4435;DHT22;46552;52.150;8.428;2024-02-21T11:27:15;11.40;99.90
4435;DHT22;46552;52.150;8.428;2024-02-21T11:29:44;11.40;99.90
4435;DHT22;46552;52.150;8.428;2024-02-21T11:32:14;11.40;99.90
4435;DHT22;46552;52.150;8.428;2024-02-21T11:34:53;11.50;99.90
4435;DHT22;46552;52.150;8.428;2024-02-21T11:37:23;11.50;99.90
4435;DHT22;46552;52.150;8.428;2024-02-21T11:39:51;11.40;99.90
4435;DHT22;46552;52.150;8.428;2024-02-21T11:42:18;11.40;99.90
4435;DHT22;46552;52.150;8.428;2024-02-21T11:44:47;11.30;99.90
4435;DHT22;46552;52.150;8.428;2024-02-21T11:47:15;11.30;99.90
4435;DHT22;46552;52.150;8.428;2024-02-21T11:49:44;11.30;99.90
4435;DHT22;46552;52.150;8.428;2024-02-21T11:52:12;11.30;99.90
4435;DHT22;46552;52.150;8.428;2024-02-21T11:54:41;11.30;99.90
4435;DHT22;46552;52.150;8.428;2024-02-21T11:57:08;11.20;99.90
4435;DHT22;46552;52.150;8.428;2024-02-21T11:59:35;11.10;99.90
4435;DHT22;46552;52.150;8.428;2024-02-21T12:02:04;11.10;99.90
4435;DHT22;46552;52.150;8.428;2024-02-21T12:04:32;11.20;99.90
4435;DHT22;46552;52.150;8.428;2024-02-21T12:07:01;11.10;99.90
4435;DHT22;46552;52.150;8.428;2024-02-21T12:09:29;11.10;99.90
4435;DHT22;46552;52.150;8.428;2024-02-21T12:12:00;10.90;99.90
4435;DHT22;46552;52.150;8.428;2024-02-21T12:14:29;10.90;99.90
4435;DHT22;46552;52.150;8.428;2024-02-21T12:16:58;10.80;99.90
4435;DHT22;46552;52.150;8.428;2024-02-21T12:19:29;10.70;99.90
4435;DHT22;46552;52.150;8.428;2024-02-21T12:21:58;10.60;99.90
4435;DHT22;46552;52.150;8.428;2024-02-21T12:24:27;10.60;99.90
4435;DHT22;46552;52.150;8.428;2024-02-21T12:26:56;10.60;99.90
4435;DHT22;46552;52.150;8.428;2024-02-21T12:29:24;10.60;99.90
4435;DHT22;46552;52.150;8.428;2024-02-21T12:31:52;10.60;99.90
4435;DHT22;46552;52.150;8.428;2024-02-21T12:34:19;10.50;99.90
4435;DHT22;46552;52.150;8.428;2024-02-21T12:36:49;10.50;99.90
4435;DHT22;46552;52.150;8.428;2024-02-21T12:39:17;10.40;99.90
4435;DHT22;46552;52.150;8.428;2024-02-21T12:41:44;10.40;99.90
4435;DHT22;46552;52.150;8.428;2024-02-21T12:44:11;10.40;99.90
4435;DHT22;46552;52.150;8.428;2024-02-21T12:46:38;10.40;99.90
4435;DHT22;46552;52.150;8.428;2024-02-21T12:49:07;10.40;99.90
4435;DHT22;46552;52.150;8.428;2024-02-21T12:51:34;10.40;99.90
4435;DHT22;46552;52.150;8.428;2024-02-21T12:54:03;10.30;99.90
4435;DHT22;46552;52.150;8.428;2024-02-21T12:56:30;10.40;99.90
4435;DHT22;46552;52.150;8.428;2024-02-21T12:58:58;10.30;99.90
4435;DHT22;46552;52.150;8.428;2024-02-21T13:01:25;10.30;99.90
4435;DHT22;46552;52.150;8.428;2024-02-21T13:03:53;10.30;99.90
4435;DHT22;46552;52.150;8.428;2024-02-21T13:06:21;10.30;99.90
4435;DHT22;46552;52.150;8.428;2024-02-21T13:08:48;10.30;99.90
4435;DHT22;46552;52.150;8.428;2024-02-21T13:11:18;10.30;99.90
4435;DHT22;46552;52.150;8.428;2024-02-21T13:13:45;10.20;99.90
4435;DHT22;46552;52.150;8.428;2024-02-21T13:16:12;10.30;99.90
4435;DHT22;46552;52.150;8.428;2024-02-21T13:18:40;10.30;99.90
4435;DHT22;46552;52.150;8.428;2024-02-21T13:21:08;10.30;99.90
4435;DHT22;46552;52.150;8.428;2024-02-21T13:23:36;10.30;99.90
4435;DHT22;46552;52.150;8.428;2024-02-21T13:26:03;10.40;99.90
4435;DHT22;46552;52.150;8.428;2024-02-21T13:28:32;10.40;99.90
4435;DHT22;46552;52.150;8.428;2024-02-21T13:30:59;10.40;99.90
4435;DHT22;46552;52.150;8.428;2024-02-21T13:33:28;10.50;99.90
4435;DHT22;46552;52.150;8.428;2024-02-21T13:35:55;10.40;99.90
4435;DHT22;46552;52.150;8.428;2024-02-21T13:38:22;10.40;99.90
4435;DHT22;46552;52.150;8.428;2024-02-21T13:40:50;10.40;99.90
4435;DHT22;46552;52.150;8.428;2024-02-21T13:43:19;10.40;99.90
4435;DHT22;46552;52.150;8.428;2024-02-21T13:45:57;10.40;99.90
4435;DHT22;46552;52.150;8.428;2024-02-21T13:48:24;10.30;99.90
4435;DHT22;46552;52.150;8.428;2024-02-21T13:50:52;10.40;99.90
4435;DHT22;46552;52.150;8.428;2024-02-21T13:53:20;10.40;99.90
4435;DHT22;46552;52.150;8.428;2024-02-21T13:55:49;10.40;99.90
4435;DHT22;46552;52.150;8.428;2024-02-21T13:58:17;10.40;99.90
4435;DHT22;46552;52.150;8.428;2024-02-21T14:00:44;10.40;99.90
4435;DHT22;46552;52.150;8.428;2024-02-21T14:03:13;10.50;99.90
4435;DHT22;46552;52.150;8.428;2024-02-21T14:05:40;10.40;99.90
4435;DHT22;46552;52.150;8.428;2024-02-21T14:08:08;10.50;99.90
4435;DHT22;46552;52.150;8.428;2024-02-21T14:10:35;10.50;99.90
4435;DHT22;46552;52.150;8.428;2024-02-21T14:13:03;10.50;99.90
4435;DHT22;46552;52.150;8.428;2024-02-21T14:15:31;10.50;99.90
4435;DHT22;46552;52.150;8.428;2024-02-21T14:17:58;10.50;99.90
4435;DHT22;46552;52.150;8.428;2024-02-21T14:20:26;10.50;99.90
4435;DHT22;46552;52.150;8.428;2024-02-21T14:22:54;10.50;99.90
4435;DHT22;46552;52.150;8.428;2024-02-21T14:25:21;10.50;99.90
4435;DHT22;46552;52.150;8.428;2024-02-21T14:27:48;10.50;99.90
4435;DHT22;46552;52.150;8.428;2024-02-21T14:30:16;10.50;99.90
4435;DHT22;46552;52.150;8.428;2024-02-21T14:32:44;10.50;99.90
4435;DHT22;46552;52.150;8.428;2024-02-21T14:35:11;10.50;99.90
4435;DHT22;46552;52.150;8.428;2024-02-21T14:37:40;10.50;99.90
4435;DHT22;46552;52.150;8.428;2024-02-21T14:40:08;10.60;99.90
4435;DHT22;46552;52.150;8.428;2024-02-21T14:42:35;10.50;99.90
4435;DHT22;46552;52.150;8.428;2024-02-21T14:45:04;10.60;99.90
4435;DHT22;46552;52.150;8.428;2024-02-21T14:47:31;10.50;99.90
4435;DHT22;46552;52.150;8.428;2024-02-21T14:49:59;10.60;99.90
4435;DHT22;46552;52.150;8.428;2024-02-21T14:52:26;10.50;99.90
4435;DHT22;46552;52.150;8.428;2024-02-21T14:54:56;10.60;99.90
4435;DHT22;46552;52.150;8.428;2024-02-21T14:57:23;10.60;99.90
4435;DHT22;46552;52.150;8.428;2024-02-21T14:59:51;10.60;99.90
4435;DHT22;46552;52.150;8.428;2024-02-21T15:02:22;10.60;99.90
4435;DHT22;46552;52.150;8.428;2024-02-21T15:04:50;10.60;99.90
4435;DHT22;46552;52.150;8.428;2024-02-21T15:07:17;10.50;99.90
4435;DHT22;46552;52.150;8.428;2024-02-21T15:09:45;10.50;99.90
4435;DHT22;46552;52.150;8.428;2024-02-21T15:12:13;10.40;99.90
4435;DHT22;46552;52.150;8.428;2024-02-21T15:14:41;10.40;99.90
4435;DHT22;46552;52.150;8.428;2024-02-21T15:17:10;10.30;99.90
4435;DHT22;46552;52.150;8.428;2024-02-21T15:19:37;10.30;99.90
4435;DHT22;46552;52.150;8.428;2024-02-21T15:22:09;10.30;99.90
4435;DHT22;46552;52.150;8.428;2024-02-21T15:24:39;10.40;99.90
4435;DHT22;46552;52.150;8.428;2024-02-21T15:27:06;10.40;99.90
4435;DHT22;46552;52.150;8.428;2024-02-21T15:29:35;10.40;99.90
4435;DHT22;46552;52.150;8.428;2024-02-21T15:32:03;10.40;99.90
4435;DHT22;46552;52.150;8.428;2024-02-21T15:34:30;10.40;99.90
4435;DHT22;46552;52.150;8.428;2024-02-21T15:36:57;10.40;99.90
4435;DHT22;46552;52.150;8.428;2024-02-21T15:39:25;10.40;99.90
4435;DHT22;46552;52.150;8.428;2024-02-21T15:41:53;10.40;99.90
4435;DHT22;46552;52.150;8.428;2024-02-21T15:44:21;10.40;99.90
4435;DHT22;46552;52.150;8.428;2024-02-21T15:46:51;10.40;99.90
4435;DHT22;46552;52.150;8.428;2024-02-21T15:49:18;10.40;99.90
4435;DHT22;46552;52.150;8.428;2024-02-21T15:51:46;10.40;99.90
4435;DHT22;46552;52.150;8.428;2024-02-21T15:54:13;10.40;99.90
4435;DHT22;46552;52.150;8.428;2024-02-21T15:56:42;10.30;99.90
4435;DHT22;46552;52.150;8.428;2024-02-21T15:59:10;10.40;99.90